Time;durP1;ratioP1;P1;durP2;ratioP2;P2;SDS_P1;SDS_P2;PMS_P1;PMS_P2;Temp;Humidity;BMP_temperature;BMP_pressure;BME280_temperature;BME280_humidity;BME280_pressure;Samples;Min_cycle;Max_cycle;Signal;HPM_P1;HPM_P2
2022/01/06 00:00:28;;;;;;;13.80;7.00;;;;;;;5.01;87.51;98153.31;25057;1314;3027067;-67
2022/01/06 00:02:57;;;;;;;10.30;7.50;;;;;;;4.95;87.61;98154.84;25054;1315;3026698;-64
2022/01/06 00:05:26;;;;;;;9.40;6.50;;;;;;;4.80;87.74;98145.87;25093;1314;3026377;-65
2022/01/06 00:07:55;;;;;;;12.80;7.30;;;;;;;5.25;87.11;98141.64;25085;1314;3051812;-66
2022/01/06 00:10:26;;;;;;;14.60;7.70;;;;;;;5.32;86.26;98145.56;25128;1315;3026592;-66
2022/01/06 00:15:38;;;;;;;12.00;7.50;;;;;;;4.78;88.21;98147.34;25108;1317;3027449;-65
2022/01/06 00:23:03;;;;;;;10.00;6.30;;;;;;;4.80;88.71;98148.43;25060;1318;3067603;-67
2022/01/06 00:24:06;;;;;;;18.90;7.30;;;;;;;4.96;87.06;98146.33;25112;1314;3055165;-66
2022/01/06 00:26:36;;;;;;;23.00;7.00;;;;;;;5.05;87.42;98137.48;25087;1315;3026409;-68
2022/01/06 00:29:04;;;;;;;14.10;6.60;;;;;;;4.88;87.37;98144.17;25066;1314;3026743;-66
2022/01/06 00:31:34;;;;;;;8.30;6.60;;;;;;;4.81;87.87;98146.67;25082;1314;3053214;-64
2022/01/06 00:34:04;;;;;;;8.30;6.30;;;;;;;5.30;86.87;98143.61;25083;1314;3029575;-68
2022/01/06 00:36:35;;;;;;;16.00;6.50;;;;;;;5.18;85.95;98137.23;25079;1316;3051796;-67
2022/01/06 00:39:05;;;;;;;33.20;7.00;;;;;;;5.10;86.48;98127.94;25091;1314;3026125;-67
2022/01/06 00:41:35;;;;;;;8.80;6.80;;;;;;;4.64;87.99;98142.11;25061;1314;3069064;-64
2022/01/06 00:44:05;;;;;;;8.40;6.00;;;;;;;4.69;89.14;98126.51;25076;1314;3026623;-61
2022/01/06 00:46:36;;;;;;;11.10;7.30;;;;;;;4.86;88.11;98121.73;25092;1314;3027466;-67
2022/01/06 00:49:05;;;;;;;25.20;7.60;;;;;;;4.93;87.32;98120.11;25130;1314;3026510;-64
2022/01/06 00:51:34;;;;;;;29.20;8.50;;;;;;;4.88;87.75;98126.66;25105;1314;3053508;-64
2022/01/06 00:54:03;;;;;;;10.20;7.20;;;;;;;4.61;88.18;98130.49;25086;1315;3026505;-66
2022/01/06 00:56:32;;;;;;;7.90;5.80;;;;;;;4.73;88.63;98128.41;25092;1315;3070754;-66
2022/01/06 00:59:02;;;;;;;11.80;6.40;;;;;;;4.88;87.73;98129.95;25060;1314;3026510;-67
2022/01/06 01:01:31;;;;;;;27.10;5.80;;;;;;;5.00;87.41;98126.82;25081;1314;3029631;-62
2022/01/06 01:04:00;;;;;;;21.70;6.10;;;;;;;4.77;87.40;98117.90;25104;1314;3070500;-66
2022/01/06 01:06:29;;;;;;;9.40;6.30;;;;;;;4.72;87.86;98115.09;25111;1314;3026730;-68
2022/01/06 01:08:59;;;;;;;7.10;5.80;;;;;;;4.64;88.39;98116.55;25098;1315;3052983;-66
2022/01/06 01:11:28;;;;;;;18.40;6.80;;;;;;;4.94;87.97;98122.80;25138;1315;3026015;-65
2022/01/06 01:14:07;;;;;;;21.00;5.80;;;;;;;5.16;87.20;98114.58;25072;1319;3054150;-71
2022/01/06 01:16:36;;;;;;;20.00;7.60;;;;;;;4.77;87.41;98123.45;25088;1315;3054366;-70
2022/01/06 01:19:10;;;;;;;13.60;7.50;;;;;;;4.70;88.09;98126.29;25052;1315;3028643;-67
2022/01/06 01:21:39;;;;;;;7.70;5.90;;;;;;;4.54;88.94;98120.98;25093;1314;3055916;-69
2022/01/06 01:24:08;;;;;;;10.60;6.20;;;;;;;5.04;88.08;98123.44;25100;1314;3026976;-65
2022/01/06 01:26:38;;;;;;;10.40;6.40;;;;;;;5.02;87.07;98116.15;25104;1315;3051779;-66
2022/01/06 01:29:14;;;;;;;24.90;7.20;;;;;;;5.07;86.94;98120.67;25086;1314;3029137;-65
2022/01/06 01:31:50;;;;;;;26.60;7.80;;;;;;;4.83;87.19;98118.60;25054;1314;3055989;-69
2022/01/06 01:34:24;;;;;;;10.20;7.30;;;;;;;4.65;88.55;98125.44;25092;1314;3054704;-65
2022/01/06 01:36:56;;;;;;;12.70;6.30;;;;;;;4.94;88.04;98124.17;25083;1314;3055863;-68
2022/01/06 01:39:24;;;;;;;13.50;7.50;;;;;;;5.23;87.62;98122.16;25055;1315;3028383;-67
2022/01/06 01:41:53;;;;;;;31.60;6.70;;;;;;;4.95;87.00;98123.28;25080;1315;3048960;-62
2022/01/06 01:44:23;;;;;;;15.30;6.90;;;;;;;4.83;87.43;98122.11;25134;1314;3026322;-64
2022/01/06 01:47:01;;;;;;;7.80;6.20;;;;;;;4.69;87.99;98123.39;25069;1314;3054476;-66
2022/01/06 01:49:44;;;;;;;15.40;7.30;;;;;;;5.05;87.27;98112.13;25067;1314;3053063;-68
2022/01/06 01:52:13;;;;;;;18.20;6.60;;;;;;;5.11;86.46;98112.77;25083;1315;3052194;-69
2022/01/06 01:54:43;;;;;;;24.50;7.60;;;;;;;4.86;86.86;98120.01;25062;1315;3026384;-66
2022/01/06 01:57:11;;;;;;;37.50;8.20;;;;;;;4.79;87.28;98106.73;25075;1318;3028038;-68
2022/01/06 01:59:40;;;;;;;9.50;7.30;;;;;;;4.60;87.86;98110.74;25091;1314;3050905;-68
2022/01/06 02:02:09;;;;;;;20.40;7.50;;;;;;;4.92;87.26;98108.73;25084;1315;3026657;-64
2022/01/06 02:04:38;;;;;;;19.20;7.10;;;;;;;5.05;86.07;98102.89;25095;1314;3049107;-69
2022/01/06 02:07:07;;;;;;;21.00;6.40;;;;;;;5.05;86.20;98100.30;25126;1315;3026774;-64
2022/01/06 02:09:36;;;;;;;27.00;8.20;;;;;;;4.91;86.31;98094.05;25105;1315;3026691;-65
2022/01/06 02:12:06;;;;;;;9.70;7.70;;;;;;;4.80;86.89;98103.21;25054;1315;3051977;-67
2022/01/06 02:14:38;;;;;;;10.20;6.80;;;;;;;4.94;86.57;98107.02;25053;1314;3026952;-65
2022/01/06 02:17:07;;;;;;;27.10;9.60;;;;;;;4.94;86.33;98095.57;25087;1319;3026677;-65
2022/01/06 02:19:37;;;;;;;34.50;8.30;;;;;;;5.00;86.01;98094.55;25099;1320;3028935;-63
2022/01/06 02:22:05;;;;;;;17.70;7.50;;;;;;;4.84;86.36;98089.59;25095;1314;3028664;-64
2022/01/06 02:24:35;;;;;;;11.40;7.00;;;;;;;4.78;86.41;98089.40;25113;1315;3053827;-66
2022/01/06 02:27:04;;;;;;;8.50;5.10;;;;;;;4.60;86.92;98100.55;25089;1314;3026445;-64
2022/01/06 02:29:33;;;;;;;15.90;8.20;;;;;;;4.80;86.74;98097.77;25119;1315;3052993;-66
2022/01/06 02:32:07;;;;;;;18.90;7.60;;;;;;;4.90;85.64;98095.30;25125;1315;3026716;-69
2022/01/06 02:34:36;;;;;;;26.20;8.70;;;;;;;4.77;86.03;98103.55;25149;1314;3048800;-62
2022/01/06 02:37:05;;;;;;;48.30;8.70;;;;;;;4.64;86.57;98105.48;25066;1315;3026603;-67
2022/01/06 02:39:34;;;;;;;23.40;8.10;;;;;;;4.44;86.98;98101.61;25152;1315;3058838;-66
2022/01/06 02:42:03;;;;;;;10.60;7.50;;;;;;;4.44;87.31;98093.84;25145;1319;3026204;-64
2022/01/06 02:44:34;;;;;;;10.20;7.40;;;;;;;4.85;86.38;98090.39;25097;1315;3054328;-70
2022/01/06 02:47:04;;;;;;;17.30;7.50;;;;;;;4.99;85.19;98097.20;25104;1315;3027469;-67
2022/01/06 02:49:34;;;;;;;12.90;7.30;;;;;;;4.82;85.45;98099.11;25082;1319;3026617;-64
2022/01/06 02:52:03;;;;;;;17.90;9.00;;;;;;;4.76;85.69;98097.84;25056;1314;3026847;-67
2022/01/06 02:54:32;;;;;;;11.30;8.20;;;;;;;4.42;86.49;98100.35;25087;1315;3026602;-63
2022/01/06 02:57:03;;;;;;;13.00;7.70;;;;;;;4.23;87.36;98099.32;25103;1314;3026459;-65
2022/01/06 02:59:32;;;;;;;15.10;8.60;;;;;;;4.82;86.42;98092.67;25102;1315;3053390;-64
2022/01/06 03:02:01;;;;;;;19.90;9.90;;;;;;;5.05;85.02;98092.89;25085;1315;3026412;-66
2022/01/06 03:04:30;;;;;;;30.80;10.10;;;;;;;4.83;85.19;98105.23;25087;1315;3052176;-65
2022/01/06 03:07:01;;;;;;;47.10;11.70;;;;;;;4.51;86.10;98104.32;25063;1315;3026585;-64
2022/01/06 03:09:38;;;;;;;17.90;9.20;;;;;;;4.41;86.81;98106.60;25083;1315;3026395;-64
2022/01/06 03:12:20;;;;;;;14.80;10.00;;;;;;;4.44;87.15;98098.10;25087;1314;3070621;-69
2022/01/06 03:14:49;;;;;;;14.30;9.90;;;;;;;4.74;86.19;98101.95;25055;1315;3053174;-65
2022/01/06 03:17:18;;;;;;;19.10;8.80;;;;;;;4.90;85.35;98105.76;25107;1315;3026503;-63
2022/01/06 03:19:48;;;;;;;18.10;11.30;;;;;;;4.86;85.32;98109.41;25070;1319;3071838;-66
2022/01/06 03:22:17;;;;;;;24.30;11.10;;;;;;;4.68;85.82;98109.04;25098;1314;3026644;-66
2022/01/06 03:24:46;;;;;;;12.20;9.00;;;;;;;4.58;86.61;98114.68;25090;1315;3053159;-65
2022/01/06 03:27:15;;;;;;;18.40;10.60;;;;;;;4.81;86.12;98104.16;25099;1315;3026546;-69
2022/01/06 03:29:47;;;;;;;24.70;10.00;;;;;;;4.96;85.34;98101.75;25106;1317;3054974;-67
2022/01/06 03:32:17;;;;;;;21.50;10.40;;;;;;;4.88;85.40;98106.55;25063;1314;3026198;-65
2022/01/06 03:34:46;;;;;;;55.30;12.20;;;;;;;4.79;85.99;98107.58;25086;1315;3026832;-66
2022/01/06 03:37:15;;;;;;;16.10;11.20;;;;;;;4.66;86.72;98100.36;25111;1314;3026277;-65
2022/01/06 03:39:44;;;;;;;16.40;10.30;;;;;;;4.98;86.03;98100.54;25087;1315;3053846;-66
2022/01/06 03:42:13;;;;;;;17.90;9.40;;;;;;;5.16;84.71;98099.46;25069;1314;3026551;-63
2022/01/06 03:44:42;;;;;;;34.70;10.90;;;;;;;5.27;84.94;98098.50;25076;1315;3055532;-64
2022/01/06 03:47:11;;;;;;;26.30;12.10;;;;;;;5.04;85.02;98099.88;25085;1314;3026463;-70
2022/01/06 03:49:41;;;;;;;12.20;9.40;;;;;;;4.82;86.06;98104.42;25050;1315;3048715;-63
2022/01/06 03:52:09;;;;;;;12.80;9.70;;;;;;;4.73;86.61;98101.86;25107;1314;3029809;-69
2022/01/06 03:54:39;;;;;;;12.50;8.70;;;;;;;5.23;85.81;98101.70;25082;1315;3059133;-68
2022/01/06 03:57:08;;;;;;;15.60;9.80;;;;;;;5.24;84.72;98099.04;25018;1314;3026655;-63
2022/01/06 03:59:37;;;;;;;23.10;9.20;;;;;;;5.24;84.87;98103.16;25085;1315;3055377;-65
2022/01/06 04:02:06;;;;;;;26.90;10.80;;;;;;;5.09;85.23;98103.58;25102;1315;3026481;-65
2022/01/06 04:04:35;;;;;;;18.20;9.00;;;;;;;4.93;86.17;98103.47;25111;1314;3052159;-66
2022/01/06 04:07:04;;;;;;;10.40;7.70;;;;;;;4.85;86.56;98105.85;25066;1315;3026630;-67
2022/01/06 04:09:33;;;;;;;10.60;8.20;;;;;;;5.15;86.13;98099.19;25069;1315;3047065;-66
2022/01/06 04:12:03;;;;;;;17.00;10.60;;;;;;;5.53;84.55;98098.98;25061;1314;3027459;-65
2022/01/06 04:14:32;;;;;;;17.60;9.10;;;;;;;5.55;84.22;98099.58;25082;1314;3027260;-66
2022/01/06 04:17:01;;;;;;;26.60;12.20;;;;;;;5.22;84.78;98106.94;25064;1314;3026577;-68
2022/01/06 04:19:35;;;;;;;15.40;11.10;;;;;;;4.99;85.92;98106.59;25064;1315;3054716;-65
2022/01/06 04:22:05;;;;;;;13.20;9.80;;;;;;;4.80;86.90;98113.73;25088;1314;3026505;-64
2022/01/06 04:24:37;;;;;;;17.00;10.70;;;;;;;5.17;85.82;98100.63;25091;1315;3027069;-64
2022/01/06 04:27:06;;;;;;;31.70;12.90;;;;;;;5.50;84.87;98096.75;25022;1314;3026492;-66
2022/01/06 04:29:35;;;;;;;27.30;13.10;;;;;;;5.37;84.53;98094.23;25038;1317;3050888;-66
2022/01/06 04:32:04;;;;;;;29.50;13.80;;;;;;;5.18;85.21;98100.91;25065;1315;3026327;-66
2022/01/06 04:34:34;;;;;;;19.40;11.30;;;;;;;5.11;85.74;98101.89;25055;1315;3054843;-64
2022/01/06 04:37:03;;;;;;;17.00;10.00;;;;;;;5.31;85.23;98108.29;25074;1315;3026684;-65
2022/01/06 04:39:32;;;;;;;18.20;11.10;;;;;;;5.60;84.31;98103.80;25018;1315;3026799;-63
2022/01/06 04:42:01;;;;;;;17.90;10.20;;;;;;;5.33;84.65;98111.27;25069;1315;3026523;-66
2022/01/06 04:44:30;;;;;;;20.50;10.70;;;;;;;5.22;85.46;98107.97;25068;1314;3051403;-66
2022/01/06 04:47:00;;;;;;;15.20;10.10;;;;;;;4.94;86.46;98099.25;25049;1315;3026642;-67
2022/01/06 04:49:29;;;;;;;16.30;10.50;;;;;;;4.88;86.97;98097.88;25068;1314;3029418;-64
2022/01/06 04:51:58;;;;;;;20.40;10.20;;;;;;;5.36;85.43;98100.56;25074;1314;3026800;-66
2022/01/06 04:54:27;;;;;;;11.60;9.40;;;;;;;5.48;84.56;98096.15;25076;1314;3058262;-67
2022/01/06 04:56:56;;;;;;;24.70;11.00;;;;;;;5.41;84.51;98105.81;25041;1315;3026663;-67
2022/01/06 04:59:25;;;;;;;24.40;12.10;;;;;;;5.00;85.92;98107.92;25067;1315;3054707;-64
2022/01/06 05:01:54;;;;;;;16.90;11.20;;;;;;;4.89;86.60;98107.70;25079;1315;3029322;-63
2022/01/06 05:04:23;;;;;;;20.50;11.70;;;;;;;5.28;85.98;98103.61;25069;1314;3053629;-64
2022/01/06 05:06:52;;;;;;;20.80;11.90;;;;;;;5.49;84.56;98100.77;25056;1315;3026559;-69
2022/01/06 05:09:21;;;;;;;22.00;11.00;;;;;;;5.41;84.33;98110.14;25067;1314;3052919;-67
2022/01/06 05:11:50;;;;;;;19.80;12.70;;;;;;;5.33;84.80;98104.86;25058;1314;3026875;-64
2022/01/06 05:14:19;;;;;;;18.00;11.30;;;;;;;5.06;85.64;98110.48;25047;1315;3071022;-67
2022/01/06 05:16:51;;;;;;;15.40;10.70;;;;;;;4.89;86.74;98119.30;25045;1315;3026584;-68
2022/01/06 05:19:19;;;;;;;14.80;10.80;;;;;;;5.31;85.73;98115.11;25044;1315;3026343;-66
2022/01/06 05:21:48;;;;;;;24.20;12.50;;;;;;;5.24;84.99;98121.77;25064;1315;3069398;-64
2022/01/06 05:24:23;;;;;;;21.90;11.80;;;;;;;5.07;85.63;98120.86;25072;1314;3026788;-67
2022/01/06 05:26:54;;;;;;;24.90;12.20;;;;;;;5.04;85.86;98127.11;25086;1317;3052468;-69
2022/01/06 05:29:23;;;;;;;14.00;10.10;;;;;;;4.94;86.23;98129.23;25069;1315;3026927;-64
2022/01/06 05:31:52;;;;;;;18.80;10.30;;;;;;;5.33;85.35;98132.99;25069;1315;3028812;-62
2022/01/06 05:34:21;;;;;;;15.50;10.30;;;;;;;5.46;84.34;98126.34;25120;1314;3051212;-64
2022/01/06 05:36:50;;;;;;;23.70;10.90;;;;;;;5.41;84.12;98122.27;25069;1315;3026404;-67
2022/01/06 05:39:19;;;;;;;23.40;12.60;;;;;;;5.36;84.47;98124.69;25070;1314;3048073;-67
2022/01/06 05:41:48;;;;;;;29.20;12.30;;;;;;;5.01;85.35;98138.74;25119;1313;3026335;-66
2022/01/06 05:44:17;;;;;;;10.90;7.50;;;;;;;4.82;86.49;98140.36;25049;1314;3071085;-64
2022/01/06 05:46:47;;;;;;;14.00;9.20;;;;;;;5.22;85.35;98143.92;25074;1314;3029645;-64
2022/01/06 05:49:16;;;;;;;19.90;9.50;;;;;;;5.58;83.70;98146.59;25108;1314;3050548;-68
2022/01/06 05:51:45;;;;;;;26.10;9.70;;;;;;;5.31;83.76;98143.55;25084;1315;3026761;-64
2022/01/06 05:54:14;;;;;;;18.70;10.40;;;;;;;5.07;85.01;98143.43;25061;1314;3052449;-65
2022/01/06 05:56:43;;;;;;;11.70;8.80;;;;;;;4.96;85.50;98153.27;25102;1315;3026946;-66
2022/01/06 05:59:12;;;;;;;13.80;9.20;;;;;;;4.79;86.36;98152.50;25054;1314;3051237;-64
2022/01/06 06:01:41;;;;;;;12.60;9.20;;;;;;;5.24;85.14;98161.48;25066;1314;3026645;-65
2022/01/06 06:04:10;;;;;;;12.90;8.50;;;;;;;5.81;82.60;98157.70;25078;1314;3058348;-66
2022/01/06 06:06:39;;;;;;;29.20;10.40;;;;;;;5.57;82.72;98170.27;25063;1314;3027047;-68
2022/01/06 06:09:08;;;;;;;20.90;10.40;;;;;;;5.25;83.75;98178.48;25079;1314;3027635;-64
2022/01/06 06:11:38;;;;;;;21.80;9.80;;;;;;;4.93;84.89;98173.91;25086;1315;3058968;-65
2022/01/06 06:14:07;;;;;;;13.60;8.80;;;;;;;4.72;86.27;98175.30;25092;1314;3029063;-65
2022/01/06 06:16:36;;;;;;;16.90;9.50;;;;;;;5.32;84.91;98171.27;25053;1315;3054875;-66
2022/01/06 06:19:05;;;;;;;20.60;8.90;;;;;;;5.62;83.19;98172.83;25092;1317;3026916;-65
2022/01/06 06:21:34;;;;;;;14.80;8.70;;;;;;;5.51;82.82;98172.02;25067;1314;3055630;-67
2022/01/06 06:24:03;;;;;;;33.50;9.50;;;;;;;5.27;83.52;98179.21;25104;1317;3026778;-67
2022/01/06 06:26:33;;;;;;;18.60;9.40;;;;;;;4.95;84.73;98176.77;25049;1314;3048583;-64
2022/01/06 06:29:01;;;;;;;13.20;9.20;;;;;;;4.84;85.73;98174.23;25036;1314;3028822;-67
2022/01/06 06:31:30;;;;;;;14.40;9.40;;;;;;;5.33;84.17;98179.06;25058;1315;3070419;-68
2022/01/06 06:33:59;;;;;;;10.40;7.70;;;;;;;5.60;82.96;98178.27;25067;1315;3026169;-65
2022/01/06 06:36:28;;;;;;;17.30;9.20;;;;;;;5.64;82.29;98181.84;25105;1314;3051014;-66
2022/01/06 06:38:57;;;;;;;20.40;8.10;;;;;;;5.41;82.41;98186.70;25048;1315;3027119;-65
2022/01/06 06:41:26;;;;;;;15.30;8.60;;;;;;;5.08;84.01;98185.23;25089;1314;3055528;-65
2022/01/06 06:43:55;;;;;;;10.30;7.70;;;;;;;4.96;84.33;98190.93;25039;1316;3030016;-66
2022/01/06 06:46:24;;;;;;;20.80;9.40;;;;;;;5.11;84.24;98194.92;25043;1314;3049061;-64
2022/01/06 06:48:53;;;;;;;21.60;9.80;;;;;;;5.32;83.60;98183.09;25072;1314;3028842;-65
2022/01/06 06:51:22;;;;;;;23.00;10.00;;;;;;;5.20;83.51;98173.20;25057;1315;3057744;-66
2022/01/06 06:53:50;;;;;;;16.10;10.20;;;;;;;5.20;84.14;98174.60;25052;1314;3028426;-67
2022/01/06 06:56:19;;;;;;;20.00;10.90;;;;;;;5.22;83.56;98184.37;25060;1315;3052264;-66
2022/01/06 06:58:48;;;;;;;12.20;9.10;;;;;;;5.08;84.30;98190.03;25060;1315;3026160;-67
2022/01/06 07:01:20;;;;;;;15.50;9.30;;;;;;;5.57;82.60;98181.45;25041;1314;3054436;-67
2022/01/06 07:03:49;;;;;;;18.60;10.10;;;;;;;5.77;81.36;98184.36;25124;1314;3027692;-66
2022/01/06 07:06:18;;;;;;;21.10;10.50;;;;;;;5.60;81.47;98189.73;25059;1315;3048465;-66
2022/01/06 07:08:47;;;;;;;24.80;10.80;;;;;;;5.42;82.08;98186.47;25109;1314;3026594;-66
2022/01/06 07:11:36;;;;;;;27.10;11.70;;;;;;;5.18;82.98;98190.86;25024;1315;3068147;-68
2022/01/06 07:14:05;;;;;;;12.80;8.60;;;;;;;4.88;84.21;98185.83;25051;1314;3026897;-69
2022/01/06 07:16:35;;;;;;;14.90;8.00;;;;;;;5.28;83.25;98182.80;25060;1316;3027381;-65
2022/01/06 07:19:04;;;;;;;15.50;8.90;;;;;;;5.29;82.29;98187.09;25071;1316;3026784;-67
2022/01/06 07:21:33;;;;;;;16.80;8.30;;;;;;;5.09;82.92;98189.30;25081;1317;3050212;-65
2022/01/06 07:24:02;;;;;;;22.70;10.40;;;;;;;4.82;83.71;98191.49;25055;1314;3028730;-68
2022/01/06 07:26:31;;;;;;;12.70;8.00;;;;;;;4.57;84.77;98198.50;25030;1314;3070684;-68
2022/01/06 07:29:01;;;;;;;12.40;8.80;;;;;;;4.60;85.19;98196.43;25020;1317;3029329;-67
2022/01/06 07:31:30;;;;;;;16.10;8.40;;;;;;;5.09;83.74;98201.06;25085;1314;3053555;-65
2022/01/06 07:33:58;;;;;;;25.50;10.20;;;;;;;5.14;82.86;98201.71;25051;1314;3027262;-66
2022/01/06 07:36:27;;;;;;;22.40;9.50;;;;;;;5.20;82.69;98206.89;25042;1317;3054787;-65
2022/01/06 07:38:56;;;;;;;26.30;9.80;;;;;;;5.04;82.71;98209.89;25046;1317;3026714;-63
2022/01/06 07:41:25;;;;;;;22.40;8.50;;;;;;;4.72;83.97;98205.33;25044;1314;3051885;-65
2022/01/06 07:43:56;;;;;;;13.70;9.10;;;;;;;4.58;84.74;98206.56;25074;1315;3027814;-65
2022/01/06 07:46:25;;;;;;;15.20;9.80;;;;;;;4.82;84.36;98203.33;25040;1314;3026436;-63
2022/01/06 07:48:57;;;;;;;23.00;9.10;;;;;;;4.98;83.37;98200.54;25097;1314;3052255;-68
2022/01/06 07:51:28;;;;;;;15.20;7.60;;;;;;;4.86;83.65;98200.67;25084;1314;3026512;-64
2022/01/06 07:53:58;;;;;;;12.80;8.70;;;;;;;4.75;83.99;98197.12;25078;1314;3026882;-68
2022/01/06 07:56:27;;;;;;;8.20;5.60;;;;;;;4.65;84.34;98199.11;25051;1315;3026763;-66
2022/01/06 07:58:56;;;;;;;13.00;8.70;;;;;;;4.45;84.77;98190.15;25066;1314;3026617;-66
2022/01/06 08:01:25;;;;;;;11.60;7.90;;;;;;;4.49;85.70;98192.17;25047;1316;3049677;-65
2022/01/06 08:03:54;;;;;;;15.50;9.30;;;;;;;4.72;85.06;98190.21;25073;1314;3027581;-71
2022/01/06 08:06:23;;;;;;;18.70;8.60;;;;;;;4.65;84.81;98187.64;25097;1314;3051559;-66
2022/01/06 08:08:52;;;;;;;35.40;11.70;;;;;;;4.39;85.93;98190.14;25061;1314;3030818;-68
2022/01/06 08:11:21;;;;;;;14.60;8.40;;;;;;;4.36;86.37;98192.05;25082;1314;3049678;-68
2022/01/06 08:13:50;;;;;;;16.10;9.50;;;;;;;4.19;87.02;98200.96;25057;1314;3026549;-65
2022/01/06 08:16:19;;;;;;;10.50;7.80;;;;;;;4.73;85.91;98189.42;25096;1315;3058420;-66
2022/01/06 08:18:48;;;;;;;24.10;10.10;;;;;;;4.82;84.69;98177.85;25088;1314;3027960;-66
2022/01/06 08:21:17;;;;;;;20.90;8.40;;;;;;;4.78;84.63;98174.98;25057;1314;3055290;-67
2022/01/06 08:23:46;;;;;;;21.40;9.10;;;;;;;4.60;85.20;98173.86;25067;1314;3026832;-67
2022/01/06 08:26:16;;;;;;;14.80;9.90;;;;;;;4.51;85.81;98177.67;25075;1314;3051441;-68
2022/01/06 08:28:46;;;;;;;10.10;7.80;;;;;;;4.39;86.46;98186.31;25051;1314;3029647;-66
2022/01/06 08:31:15;;;;;;;11.90;8.30;;;;;;;4.94;85.58;98183.22;25057;1314;3029983;-68
2022/01/06 08:33:45;;;;;;;38.40;12.20;;;;;;;5.28;83.53;98194.58;25067;1314;3027217;-70
2022/01/06 08:36:14;;;;;;;24.10;12.50;;;;;;;5.32;82.75;98208.24;25060;1317;3052899;-64
2022/01/06 08:38:43;;;;;;;31.90;16.00;;;;;;;5.13;83.01;98218.53;25063;1315;3027843;-68
2022/01/06 08:41:12;;;;;;;24.20;13.40;;;;;;;4.98;83.53;98222.73;24850;1315;3347745;-67
2022/01/06 08:43:41;;;;;;;29.50;16.70;;;;;;;4.89;84.11;98219.10;25106;1315;3025989;-69
2022/01/06 08:46:10;;;;;;;30.90;16.70;;;;;;;5.30;83.34;98217.56;25105;1314;3052053;-69
2022/01/06 08:48:39;;;;;;;29.20;16.30;;;;;;;5.78;81.11;98215.54;25125;1314;3026755;-65
2022/01/06 08:51:07;;;;;;;19.10;11.10;;;;;;;5.80;80.56;98211.98;25084;1314;3068585;-65
2022/01/06 08:53:37;;;;;;;31.90;12.10;;;;;;;5.47;81.34;98212.92;25088;1314;3026403;-66
2022/01/06 08:56:05;;;;;;;19.10;11.60;;;;;;;5.34;81.94;98213.71;25121;1314;3051840;-67
2022/01/06 08:58:35;;;;;;;14.60;9.70;;;;;;;5.10;82.72;98208.30;25070;1314;3027821;-69
2022/01/06 09:01:04;;;;;;;18.20;11.30;;;;;;;5.62;81.94;98209.02;25074;1314;3026331;-67
2022/01/06 09:03:33;;;;;;;16.70;10.70;;;;;;;5.82;80.38;98201.64;25070;1314;3053709;-66
2022/01/06 09:06:02;;;;;;;16.50;10.30;;;;;;;5.84;80.22;98207.40;25079;1314;3027211;-68
2022/01/06 09:08:31;;;;;;;17.50;11.50;;;;;;;5.86;80.25;98210.07;25119;1314;3055137;-64
2022/01/06 09:11:00;;;;;;;27.80;12.70;;;;;;;5.79;80.09;98213.77;25057;1315;3026524;-67
2022/01/06 09:13:29;;;;;;;25.50;13.90;;;;;;;5.68;80.08;98220.21;25053;1314;3051757;-68
2022/01/06 09:15:58;;;;;;;12.90;8.00;;;;;;;5.57;81.03;98221.89;25087;1314;3026671;-67
2022/01/06 09:18:27;;;;;;;15.10;10.20;;;;;;;6.28;78.85;98215.52;25042;1314;3057959;-67
2022/01/06 09:20:56;;;;;;;23.30;13.00;;;;;;;6.57;77.61;98218.21;25060;1314;3026552;-68
2022/01/06 09:23:25;;;;;;;21.60;12.70;;;;;;;6.31;77.76;98222.96;25078;1314;3051887;-67
2022/01/06 09:25:54;;;;;;;29.40;15.40;;;;;;;6.22;78.20;98230.46;25093;1315;3026880;-63
2022/01/06 09:28:23;;;;;;;27.60;15.80;;;;;;;5.60;80.43;98236.31;25064;1316;3054065;-69
2022/01/06 09:30:51;;;;;;;34.90;15.20;;;;;;;5.54;80.75;98234.06;25102;1315;3026824;-62
2022/01/06 09:33:21;;;;;;;28.00;15.40;;;;;;;5.46;81.02;98222.73;25066;1314;3051577;-60
2022/01/06 09:35:51;;;;;;;26.60;15.30;;;;;;;5.66;80.66;98220.84;25091;1315;3026921;-69
2022/01/06 09:38:20;;;;;;;22.80;12.10;;;;;;;5.96;79.84;98217.63;25108;1314;3069302;-67
2022/01/06 09:40:49;;;;;;;23.90;14.10;;;;;;;5.96;79.29;98213.45;25066;1314;3026532;-66
2022/01/06 09:43:24;;;;;;;20.20;13.30;;;;;;;6.03;79.14;98213.04;25066;1314;3050573;-66
2022/01/06 09:45:53;;;;;;;22.00;13.50;;;;;;;5.84;79.21;98217.48;25070;1314;3070739;-67
2022/01/06 09:48:22;;;;;;;29.20;13.70;;;;;;;5.71;79.75;98228.33;25066;1314;3027441;-66
2022/01/06 09:50:53;;;;;;;19.30;12.30;;;;;;;5.46;80.50;98232.45;25054;1314;3053819;-69
2022/01/06 09:53:23;;;;;;;20.10;11.00;;;;;;;5.79;80.19;98231.19;25058;1317;3029505;-69
2022/01/06 09:55:52;;;;;;;14.20;9.20;;;;;;;6.57;77.41;98220.33;25077;1314;3052756;-67
2022/01/06 09:58:25;;;;;;;40.20;12.50;;;;;;;6.48;76.78;98222.91;25069;1315;3026474;-65
2022/01/06 10:00:56;;;;;;;18.90;10.70;;;;;;;6.23;77.60;98229.23;25085;1314;3027364;-69
2022/01/06 10:03:34;;;;;;;29.60;15.00;;;;;;;5.82;78.35;98221.80;25065;1314;3027844;-68
2022/01/06 10:06:17;;;;;;;27.70;13.30;;;;;;;5.47;80.28;98222.33;25100;1315;3050995;-66
2022/01/06 10:09:01;;;;;;;18.90;11.70;;;;;;;5.54;80.27;98212.86;25053;1315;3056366;-66
2022/01/06 10:11:32;;;;;;;18.50;11.00;;;;;;;5.98;78.89;98212.46;25063;1314;3055684;-66
2022/01/06 10:14:09;;;;;;;22.50;12.80;;;;;;;6.59;77.25;98211.66;25052;1314;3026331;-65
2022/01/06 10:16:39;;;;;;;26.30;14.80;;;;;;;6.29;77.25;98204.86;25057;1314;3053289;-66
2022/01/06 10:19:10;;;;;;;25.40;13.10;;;;;;;6.25;77.77;98203.48;25098;1314;3026896;-69
2022/01/06 10:21:41;;;;;;;23.10;11.30;;;;;;;6.04;77.47;98204.62;25062;1314;3031022;-67
2022/01/06 10:24:13;;;;;;;22.00;13.40;;;;;;;5.63;78.82;98203.46;25068;1314;3027313;-68
2022/01/06 10:27:04;;;;;;;21.90;13.60;;;;;;;5.63;79.25;98207.95;25090;1317;3026811;-69
2022/01/06 10:29:47;;;;;;;24.60;13.50;;;;;;;6.16;78.47;98198.16;25061;1314;3054999;-69
2022/01/06 10:32:25;;;;;;;23.30;14.70;;;;;;;6.40;76.40;98194.58;25092;1315;3055290;-66
2022/01/06 10:34:54;;;;;;;28.60;14.90;;;;;;;6.63;76.01;98198.34;25107;1314;3049985;-65
2022/01/06 10:37:27;;;;;;;25.70;16.50;;;;;;;6.59;75.63;98199.80;25088;1314;3026473;-68
2022/01/06 10:40:02;;;;;;;30.80;17.40;;;;;;;6.53;76.00;98203.49;25102;1314;3026974;-67
2022/01/06 10:42:33;;;;;;;26.40;16.30;;;;;;;6.34;76.19;98205.21;25075;1314;3070976;-69
2022/01/06 10:45:11;;;;;;;21.00;12.20;;;;;;;6.32;76.32;98208.86;25063;1315;3026436;-68
2022/01/06 10:47:41;;;;;;;19.30;12.10;;;;;;;5.96;76.78;98215.70;25078;1315;3052137;-68
2022/01/06 10:50:10;;;;;;;20.30;13.10;;;;;;;6.42;76.43;98211.86;25087;1315;3027088;-65
2022/01/06 10:52:40;;;;;;;24.20;14.50;;;;;;;6.71;74.79;98209.65;25035;1314;3026533;-69
2022/01/06 10:55:17;;;;;;;18.40;13.10;;;;;;;6.80;74.72;98202.45;25080;1314;3051311;-67
2022/01/06 10:57:59;;;;;;;25.70;15.90;;;;;;;6.72;74.75;98199.47;25053;1314;3051752;-66
2022/01/06 11:00:30;;;;;;;26.20;16.60;;;;;;;6.36;75.64;98200.24;25078;1314;3058407;-67
2022/01/06 11:03:13;;;;;;;32.00;18.00;;;;;;;5.99;76.95;98199.87;25112;1314;3026530;-69
2022/01/06 11:05:50;;;;;;;28.10;17.10;;;;;;;5.86;77.32;98203.13;25167;1315;3054207;-66
2022/01/06 11:08:25;;;;;;;23.10;13.80;;;;;;;5.76;77.81;98207.34;25095;1315;3052254;-64
2022/01/06 11:13:44;;;;;;;23.80;14.30;;;;;;;6.89;74.22;98196.64;25080;1314;3049487;-65
2022/01/06 11:16:33;;;;;;;;;;;;;;;6.97;73.77;98199.80;25122;1315;3054801;-65
2022/01/06 11:19:02;;;;;;;27.40;16.80;;;;;;;6.78;74.26;98199.41;25056;1314;3026975;-65
2022/01/06 11:21:39;;;;;;;26.00;16.50;;;;;;;6.60;74.82;98211.92;24987;1315;3049125;-62
2022/01/06 11:24:16;;;;;;;26.40;15.40;;;;;;;6.32;74.94;98206.89;25128;1315;3054506;-62
2022/01/06 11:27:02;;;;;;;29.10;16.30;;;;;;;6.31;75.07;98208.20;25106;1316;3052938;-64
2022/01/06 11:29:35;;;;;;;35.00;16.40;;;;;;;6.12;75.57;98222.23;25048;1315;3058892;-63
2022/01/06 11:32:05;;;;;;;20.60;11.90;;;;;;;5.97;76.58;98225.23;25111;1316;3029005;-61
2022/01/06 11:34:38;;;;;;;21.80;13.10;;;;;;;6.53;75.66;98224.52;25100;1316;3054951;-66
2022/01/06 11:37:11;;;;;;;22.30;13.30;;;;;;;7.08;73.81;98228.27;25099;1314;3029537;-62